Burton, Ohio
Current Conditions -  °F | °C
As of 2:17 PM on Tuesday 21 Oct 2014 (Local Time) from KPOV Reporting Station
Overcast Overcast  
Wind Chill: 44°   Ceiling: 2400
Heat Index: 48°   Visibility: 10mi
Dew Point: 48°   Wind: 8mph
Humidity: 100%   Direction: 320°NW
Pressure: 29.94"   Gusts: 17mph
Location:  41.47°N, 81.15°W
Report Text: KPOV 211817Z AUTO 32007G15KT 10SM SCT014 BKN024 OVC031 09/09 A2994 RMK AO2 T00890092
Loading
Personal Weather Stations






























Interactive Weather Map
Tropical Storm Tracking
New forecast layout! Learn more

10-Day Weather Forecast

Advertisements
Track Severe Weather on mobile